Terminal Aerodrome Forecast
Issued by NWS

Home | Current Version | Previous Version | Text Only | Print | Product List | Glossary On
Versions: 1 2 3 4 5 6 7 8 9 10 11 12 13 14 15 16 17 18 19 20 21 22 23 24 25 26 27 28
000
FTUS44 KHGX 101129
TAFLBX
TAF
KLBX 101129Z 1012/1112 00000KT P6SM VCSH FEW020 SCT250
     FM101400 18007KT P6SM VCSH SCT030 SCT250
     FM101800 18010KT P6SM FEW035 SCT250
     FM110200 17005KT P6SM FEW250=

USA.gov is the U.S. government's official web portal to all federal, state and local government web resources and services.